createdAt,value
2023-05-21T00:01:07.049Z,79.88
2023-05-21T00:03:33.948Z,80.18
2023-05-21T00:06:01.718Z,80.05
2023-05-21T00:08:28.546Z,79.72
2023-05-21T00:10:55.865Z,79.63
2023-05-21T00:13:22.455Z,80.41
2023-05-21T00:15:49.426Z,80.28
2023-05-21T00:18:16.648Z,81.19
2023-05-21T00:20:43.236Z,81.47
2023-05-21T00:23:10.334Z,81.39
2023-05-21T00:25:37.201Z,81.78
2023-05-21T00:28:07.042Z,81.59
2023-05-21T00:30:33.747Z,82.02
2023-05-21T00:33:02.741Z,82.33
2023-05-21T00:35:29.910Z,82.25
2023-05-21T00:37:57.396Z,83.02
2023-05-21T00:40:24.308Z,83.47
2023-05-21T00:42:50.952Z,83.47
2023-05-21T00:45:17.748Z,84.08
2023-05-21T00:47:45.893Z,83.98
2023-05-21T00:50:14.957Z,84.76
2023-05-21T00:52:43.975Z,84.25
2023-05-21T00:55:11.012Z,83.94
2023-05-21T00:57:38.632Z,84.00
2023-05-21T01:00:09.191Z,84.40
2023-05-21T01:02:37.536Z,84.96
2023-05-21T01:05:06.118Z,85.47
2023-05-21T01:07:38.958Z,85.78
2023-05-21T01:10:08.807Z,85.77
2023-05-21T01:12:37.596Z,86.58
2023-05-21T01:15:05.398Z,86.20
2023-05-21T01:17:34.296Z,85.41
2023-05-21T01:20:01.951Z,85.04
2023-05-21T01:22:32.927Z,85.16
2023-05-21T01:25:02.796Z,85.42
2023-05-21T01:27:29.698Z,85.05
2023-05-21T01:29:57.315Z,85.70
2023-05-21T01:32:34.663Z,86.07
2023-05-21T01:35:27.851Z,85.34
2023-05-21T01:38:20.590Z,85.87
2023-05-21T01:40:54.246Z,85.30
2023-05-21T01:43:22.484Z,86.57
2023-05-21T01:45:54.645Z,86.08
2023-05-21T01:48:24.018Z,85.92
2023-05-21T01:50:52.947Z,85.96
2023-05-21T01:53:19.666Z,87.29
2023-05-21T01:55:47.008Z,87.23
2023-05-21T01:58:15.845Z,87.67
2023-05-21T02:00:42.738Z,87.47
2023-05-21T02:03:09.599Z,87.36
2023-05-21T02:05:36.754Z,88.04
2023-05-21T02:08:05.477Z,89.23
2023-05-21T02:10:32.537Z,88.75
2023-05-21T02:12:59.355Z,88.76
2023-05-21T02:15:26.090Z,89.52
2023-05-21T02:17:53.189Z,90.02
2023-05-21T02:20:19.950Z,89.40
2023-05-21T02:22:48.244Z,90.08
2023-05-21T02:25:18.349Z,90.83
2023-05-21T02:27:46.640Z,90.44
2023-05-21T02:30:15.464Z,90.32
2023-05-21T02:32:43.536Z,90.76
2023-05-21T02:35:12.054Z,91.65
2023-05-21T02:37:40.468Z,91.24
2023-05-21T02:40:09.838Z,91.84
2023-05-21T02:42:39.308Z,91.75
2023-05-21T02:45:08.499Z,93.51
2023-05-21T02:47:35.416Z,92.27
2023-05-21T02:50:02.135Z,92.52
2023-05-21T02:52:29.837Z,93.30
2023-05-21T02:54:56.536Z,93.21
2023-05-21T02:57:23.261Z,93.31
2023-05-21T02:59:51.241Z,92.78
2023-05-21T03:02:18.342Z,93.38
2023-05-21T03:04:48.907Z,91.76
2023-05-21T03:07:18.919Z,92.64
2023-05-21T03:09:46.857Z,92.07
2023-05-21T03:12:13.971Z,91.79
2023-05-21T03:14:42.547Z,91.75
2023-05-21T03:17:13.836Z,91.60
2023-05-21T03:19:41.791Z,91.56
2023-05-21T03:22:08.869Z,91.63
2023-05-21T03:24:38.256Z,91.36
2023-05-21T03:27:06.723Z,92.07
2023-05-21T03:29:34.183Z,91.64
2023-05-21T03:32:02.724Z,91.82
2023-05-21T03:34:31.315Z,91.67
2023-05-21T03:36:58.696Z,92.32
2023-05-21T03:39:26.487Z,92.09
2023-05-21T03:41:54.943Z,92.40
2023-05-21T03:44:42.231Z,92.26
2023-05-21T03:47:32.604Z,93.12
2023-05-21T03:50:02.184Z,92.18
2023-05-21T03:52:29.028Z,92.23
2023-05-21T03:54:56.550Z,92.43
2023-05-21T03:57:23.493Z,92.06
2023-05-21T03:59:50.325Z,92.19
2023-05-21T04:02:17.165Z,92.32
2023-05-21T04:04:45.383Z,91.80
2023-05-21T04:07:14.694Z,91.61
2023-05-21T04:09:42.049Z,92.03
2023-05-21T04:12:08.672Z,92.43
2023-05-21T04:14:37.693Z,92.09
2023-05-21T04:17:05.386Z,92.01
2023-05-21T04:19:35.399Z,91.83
2023-05-21T04:22:03.684Z,91.55
2023-05-21T04:24:32.216Z,92.37
2023-05-21T04:27:25.093Z,91.87
2023-05-21T04:29:54.784Z,91.94
2023-05-21T04:32:23.787Z,91.72
2023-05-21T04:34:50.496Z,91.46
2023-05-21T04:37:20.033Z,91.08
2023-05-21T04:39:46.957Z,91.45
2023-05-21T04:42:13.858Z,91.28
2023-05-21T04:44:41.554Z,91.02
2023-05-21T04:47:10.482Z,90.89
2023-05-21T04:49:37.312Z,90.85
2023-05-21T04:52:04.425Z,90.96
2023-05-21T04:54:31.296Z,90.64
2023-05-21T04:56:58.454Z,90.80
2023-05-21T04:59:25.107Z,90.84
2023-05-21T05:01:52.710Z,89.96
2023-05-21T05:04:21.700Z,90.48
2023-05-21T05:06:48.871Z,89.92
2023-05-21T05:09:15.968Z,89.66
2023-05-21T05:11:42.611Z,90.20
2023-05-21T05:14:09.411Z,89.76
2023-05-21T05:16:36.382Z,89.34
2023-05-21T05:19:03.691Z,89.05
2023-05-21T05:21:30.924Z,89.29
2023-05-21T05:23:59.117Z,88.92
2023-05-21T05:26:28.802Z,88.88
2023-05-21T05:28:56.308Z,88.24
2023-05-21T05:31:23.690Z,88.58
2023-05-21T05:33:51.894Z,88.71
2023-05-21T05:36:19.289Z,88.81
2023-05-21T05:38:46.614Z,88.40
2023-05-21T05:41:13.244Z,88.37
2023-05-21T05:43:40.115Z,88.43
2023-05-21T05:46:07.104Z,88.58
2023-05-21T05:48:33.930Z,88.18
2023-05-21T05:51:01.874Z,88.14
2023-05-21T05:53:28.624Z,87.87
2023-05-21T05:55:56.595Z,87.35
2023-05-21T05:58:23.434Z,87.15
2023-05-21T06:01:03.610Z,87.30
2023-05-21T06:03:30.886Z,86.59
2023-05-21T06:05:57.772Z,86.81
2023-05-21T06:08:26.694Z,87.12
2023-05-21T06:10:53.249Z,86.64
2023-05-21T06:13:20.275Z,86.21
2023-05-21T06:15:47.197Z,85.78
2023-05-21T06:18:15.936Z,85.80
2023-05-21T06:20:48.334Z,84.50
2023-05-21T06:23:16.196Z,85.34
2023-05-21T06:25:45.424Z,84.77
2023-05-21T06:28:12.760Z,84.88
2023-05-21T06:30:41.397Z,85.49
2023-05-21T06:33:08.499Z,85.28
2023-05-21T06:35:37.212Z,85.31
2023-05-21T06:38:04.323Z,84.85
2023-05-21T06:40:30.970Z,85.55
2023-05-21T06:43:00.117Z,85.27
2023-05-21T06:45:45.209Z,84.39
2023-05-21T06:48:27.272Z,84.08
2023-05-21T06:50:54.422Z,84.13
2023-05-21T06:53:21.927Z,83.18
2023-05-21T06:55:53.471Z,83.04
2023-05-21T06:58:43.502Z,82.30
2023-05-21T07:01:11.654Z,81.91
2023-05-21T07:03:38.607Z,81.13
2023-05-21T07:06:05.491Z,81.35
2023-05-21T07:08:32.053Z,81.54
2023-05-21T07:10:59.413Z,80.52
2023-05-21T07:13:26.369Z,80.03
2023-05-21T07:15:53.621Z,80.33
2023-05-21T07:18:20.916Z,80.17
2023-05-21T07:20:47.772Z,79.30
2023-05-21T07:23:16.101Z,79.43
2023-05-21T07:25:42.769Z,77.86
2023-05-21T07:28:09.649Z,76.25
2023-05-21T07:30:36.541Z,75.87
2023-05-21T07:33:07.307Z,74.66
2023-05-21T07:35:34.299Z,74.35
2023-05-21T07:38:01.130Z,71.93
2023-05-21T07:40:28.079Z,70.44
2023-05-21T07:42:55.090Z,70.81
2023-05-21T07:45:24.863Z,69.83
2023-05-21T07:47:51.547Z,71.44
2023-05-21T07:50:22.533Z,71.89
2023-05-21T07:52:49.484Z,71.12
2023-05-21T07:55:16.449Z,69.38
2023-05-21T07:57:43.705Z,67.72
2023-05-21T08:00:16.027Z,68.27
2023-05-21T08:02:46.895Z,68.14
2023-05-21T08:05:16.490Z,69.83
2023-05-21T08:07:44.051Z,69.57
2023-05-21T08:10:13.595Z,68.82
2023-05-21T08:12:40.447Z,66.04
2023-05-21T08:15:09.304Z,64.91
2023-05-21T08:17:41.872Z,64.20
2023-05-21T08:20:09.129Z,64.75
2023-05-21T08:22:37.377Z,66.26
2023-05-21T08:25:04.746Z,63.67
2023-05-21T08:27:31.572Z,61.98
2023-05-21T08:29:58.636Z,61.52
2023-05-21T08:32:26.581Z,62.00
2023-05-21T08:34:54.438Z,62.21
2023-05-21T08:37:46.171Z,61.26
2023-05-21T08:40:18.501Z,60.32
2023-05-21T08:42:49.243Z,61.13
2023-05-21T08:45:26.704Z,63.80
2023-05-21T08:47:59.572Z,62.53
2023-05-21T08:50:31.653Z,61.59
2023-05-21T08:53:05.628Z,60.88
2023-05-21T08:55:42.712Z,61.12
2023-05-21T08:58:10.751Z,60.79
2023-05-21T09:00:38.792Z,62.98
2023-05-21T09:03:12.308Z,63.22
2023-05-21T09:05:41.428Z,63.16
2023-05-21T09:08:19.229Z,64.00
2023-05-21T09:11:01.854Z,63.61
2023-05-21T09:13:34.305Z,63.16
2023-05-21T09:16:09.322Z,63.24
2023-05-21T09:18:36.618Z,64.74
2023-05-21T09:21:24.573Z,65.49
2023-05-21T09:23:55.874Z,63.66
2023-05-21T09:26:24.003Z,62.49
2023-05-21T09:28:59.395Z,64.12
2023-05-21T09:31:27.319Z,64.44
2023-05-21T09:33:55.709Z,63.45
2023-05-21T09:36:24.499Z,63.23
2023-05-21T09:38:52.012Z,64.31
2023-05-21T09:41:21.795Z,63.96
2023-05-21T09:43:49.544Z,65.41
2023-05-21T09:46:20.890Z,64.70
2023-05-21T09:48:47.565Z,63.50
2023-05-21T09:51:16.752Z,64.67
2023-05-21T09:54:01.153Z,65.22
2023-05-21T09:56:32.556Z,65.04
2023-05-21T09:59:06.751Z,65.70
2023-05-21T10:01:34.941Z,64.50
2023-05-21T10:04:07.108Z,63.48
2023-05-21T10:06:40.268Z,63.71
2023-05-21T10:09:10.547Z,64.03
2023-05-21T10:11:37.397Z,63.33
2023-05-21T10:14:09.742Z,62.19
2023-05-21T10:16:37.498Z,61.73
2023-05-21T10:19:06.019Z,61.85
2023-05-21T10:21:36.268Z,60.17
2023-05-21T10:24:04.228Z,61.27
2023-05-21T10:26:32.855Z,60.92
2023-05-21T10:29:00.765Z,60.13
2023-05-21T10:31:27.891Z,59.67
2023-05-21T10:33:55.524Z,60.55
2023-05-21T10:36:33.697Z,62.31
2023-05-21T10:39:02.225Z,62.08
2023-05-21T10:41:36.128Z,62.41
2023-05-21T10:44:27.728Z,62.13
2023-05-21T10:47:21.911Z,61.92
2023-05-21T10:50:22.265Z,59.88
2023-05-21T10:53:04.922Z,60.84
2023-05-21T10:55:52.897Z,61.11
2023-05-21T10:58:31.623Z,60.46
2023-05-21T11:01:00.083Z,60.39
2023-05-21T11:03:28.556Z,59.35
2023-05-21T11:05:56.880Z,59.22
2023-05-21T11:08:35.886Z,58.12
2023-05-21T11:11:04.076Z,58.58
2023-05-21T11:13:51.063Z,59.68
2023-05-21T11:16:18.514Z,61.57
2023-05-21T11:18:45.055Z,61.83
2023-05-21T11:21:14.097Z,60.63
2023-05-21T11:23:55.380Z,60.92
2023-05-21T11:26:55.178Z,60.08
2023-05-21T11:29:32.233Z,60.88
2023-05-21T11:32:05.406Z,60.46
2023-05-21T11:34:39.422Z,60.17
2023-05-21T11:37:33.413Z,60.81
2023-05-21T11:40:19.001Z,60.64
2023-05-21T11:42:50.907Z,59.38
2023-05-21T11:45:19.890Z,59.39
2023-05-21T11:47:48.350Z,57.41
2023-05-21T11:50:15.989Z,57.11
2023-05-21T11:52:44.136Z,56.70
2023-05-21T11:55:11.523Z,56.79
2023-05-21T11:57:48.060Z,56.95
2023-05-21T12:00:16.486Z,58.98
2023-05-21T12:02:50.027Z,59.14
2023-05-21T12:05:17.010Z,58.36
2023-05-21T12:07:48.637Z,57.77
2023-05-21T12:10:15.422Z,58.36
2023-05-21T12:12:53.890Z,59.20
2023-05-21T12:15:22.812Z,58.36
2023-05-21T12:17:52.724Z,57.71
2023-05-21T12:20:20.027Z,57.26
2023-05-21T12:22:48.896Z,57.08
2023-05-21T12:25:20.116Z,56.81
2023-05-21T12:27:48.487Z,56.31
2023-05-21T12:30:15.681Z,56.85
2023-05-21T12:32:44.199Z,55.91
2023-05-21T12:35:21.781Z,54.57
2023-05-21T12:37:50.633Z,53.77
2023-05-21T12:40:18.171Z,53.46
2023-05-21T12:42:45.870Z,54.49
2023-05-21T12:45:12.990Z,55.40
2023-05-21T12:47:39.777Z,55.30
2023-05-21T12:50:14.052Z,56.25
2023-05-21T12:52:43.077Z,55.70
2023-05-21T12:55:13.078Z,56.81
2023-05-21T12:57:39.930Z,56.00
2023-05-21T13:00:07.370Z,55.91
2023-05-21T13:02:42.002Z,55.59
2023-05-21T13:05:11.538Z,55.17
2023-05-21T13:07:39.817Z,55.25
2023-05-21T13:10:07.554Z,55.27
2023-05-21T13:12:34.915Z,55.56
2023-05-21T13:15:03.556Z,55.97
2023-05-21T13:17:30.500Z,56.13
2023-05-21T13:20:09.909Z,54.58
2023-05-21T13:22:46.582Z,54.96
2023-05-21T13:25:20.222Z,53.16
2023-05-21T13:27:51.755Z,53.66
2023-05-21T13:30:19.481Z,54.60
2023-05-21T13:32:46.782Z,54.27
2023-05-21T13:35:15.219Z,53.73
2023-05-21T13:37:42.170Z,54.09
2023-05-21T13:40:17.030Z,54.58
2023-05-21T13:42:45.909Z,53.74
2023-05-21T13:45:14.261Z,53.31
2023-05-21T13:47:42.474Z,53.58
2023-05-21T13:50:09.890Z,53.38
2023-05-21T13:52:37.884Z,54.16
2023-05-21T13:55:05.277Z,54.44
2023-05-21T13:57:32.174Z,54.90
2023-05-21T13:59:59.641Z,55.85
2023-05-21T14:02:26.930Z,55.13
2023-05-21T14:04:57.505Z,54.23
2023-05-21T14:07:24.475Z,53.71
2023-05-21T14:09:52.429Z,53.76
2023-05-21T14:12:19.159Z,53.77
2023-05-21T14:14:46.075Z,54.07
2023-05-21T14:17:12.864Z,55.44
2023-05-21T14:19:39.509Z,55.69
2023-05-21T14:22:06.242Z,54.79
2023-05-21T14:24:32.953Z,54.66
2023-05-21T14:26:59.883Z,54.39
2023-05-21T14:29:26.549Z,54.22
2023-05-21T14:31:53.600Z,54.73
2023-05-21T14:34:20.522Z,54.48
2023-05-21T14:36:47.399Z,54.53
2023-05-21T14:39:14.126Z,55.03
2023-05-21T14:41:40.854Z,55.02
2023-05-21T14:44:08.222Z,55.29
2023-05-21T14:46:35.422Z,55.65
2023-05-21T14:49:03.724Z,54.91
2023-05-21T14:51:31.615Z,54.34
2023-05-21T14:53:58.782Z,54.35
2023-05-21T14:56:28.373Z,54.44
2023-05-21T14:58:55.554Z,53.87
2023-05-21T15:01:22.448Z,54.04
2023-05-21T15:03:49.377Z,54.98
2023-05-21T15:06:16.279Z,54.96
2023-05-21T15:08:43.427Z,55.19
2023-05-21T15:11:10.164Z,55.72
2023-05-21T15:13:36.896Z,55.53
2023-05-21T15:16:06.834Z,55.19
2023-05-21T15:18:33.908Z,55.50
2023-05-21T15:21:00.891Z,55.24
2023-05-21T15:23:27.786Z,56.70
2023-05-21T15:25:54.618Z,56.84
2023-05-21T15:28:22.960Z,56.34
2023-05-21T15:30:49.779Z,56.45
2023-05-21T15:33:16.509Z,56.69
2023-05-21T15:35:43.576Z,56.78
2023-05-21T15:38:10.462Z,56.82
2023-05-21T15:40:41.226Z,57.27
2023-05-21T15:43:08.232Z,57.27
2023-05-21T15:45:35.195Z,57.49
2023-05-21T15:48:02.550Z,58.05
2023-05-21T15:50:29.433Z,58.69
2023-05-21T15:52:56.138Z,58.07
2023-05-21T15:55:22.857Z,58.14
2023-05-21T15:57:49.554Z,58.14
2023-05-21T16:00:16.708Z,58.89
2023-05-21T16:02:43.847Z,58.91
2023-05-21T16:05:10.585Z,58.72
2023-05-21T16:07:38.421Z,59.08
2023-05-21T16:10:06.464Z,59.29
2023-05-21T16:12:33.563Z,59.03
2023-05-21T16:15:00.804Z,59.16
2023-05-21T16:17:27.653Z,60.05
2023-05-21T16:19:54.381Z,60.27
2023-05-21T16:22:21.341Z,60.41
2023-05-21T16:24:48.299Z,60.03
2023-05-21T16:27:15.098Z,60.47
2023-05-21T16:29:42.479Z,61.21
2023-05-21T16:32:10.602Z,61.35
2023-05-21T16:34:37.455Z,61.35
2023-05-21T16:37:04.342Z,61.61
2023-05-21T16:39:31.357Z,61.72
2023-05-21T16:41:59.849Z,62.13
2023-05-21T16:44:27.485Z,62.17
2023-05-21T16:46:54.462Z,62.03
2023-05-21T16:49:21.146Z,61.79
2023-05-21T16:51:47.916Z,61.96
2023-05-21T16:54:14.806Z,62.37
2023-05-21T16:56:41.476Z,62.95
2023-05-21T16:59:08.097Z,62.46
2023-05-21T17:01:34.870Z,62.44
2023-05-21T17:04:01.860Z,62.76
2023-05-21T17:06:29.068Z,62.39
2023-05-21T17:08:56.020Z,61.91
2023-05-21T17:11:23.093Z,61.32
2023-05-21T17:13:49.702Z,60.65
2023-05-21T17:16:16.445Z,61.10
2023-05-21T17:18:43.179Z,60.97
2023-05-21T17:21:10.049Z,60.58
2023-05-21T17:23:36.952Z,60.39
2023-05-21T17:26:03.621Z,60.57
2023-05-21T17:28:30.291Z,60.00
2023-05-21T17:30:56.906Z,59.84
2023-05-21T17:33:24.559Z,60.24
2023-05-21T17:35:51.132Z,61.28
2023-05-21T17:38:17.789Z,60.74
2023-05-21T17:40:44.506Z,61.51
2023-05-21T17:43:11.390Z,61.85
2023-05-21T17:45:38.334Z,61.41
2023-05-21T17:48:05.444Z,61.38
2023-05-21T17:50:32.446Z,62.03
2023-05-21T17:53:01.240Z,62.86
2023-05-21T17:55:28.081Z,62.56
2023-05-21T17:57:54.735Z,62.78
2023-05-21T18:00:21.525Z,62.82
2023-05-21T18:02:48.137Z,63.19
2023-05-21T18:05:15.100Z,63.68
2023-05-21T18:07:41.729Z,63.84
2023-05-21T18:10:08.804Z,64.36
2023-05-21T18:12:36.112Z,64.90
2023-05-21T18:15:02.864Z,65.02
2023-05-21T18:17:29.656Z,65.02
2023-05-21T18:19:56.552Z,65.23
2023-05-21T18:22:23.553Z,64.65
2023-05-21T18:24:50.228Z,64.95
2023-05-21T18:27:17.041Z,65.82
2023-05-21T18:29:43.764Z,66.66
2023-05-21T18:32:11.611Z,67.48
2023-05-21T18:34:38.418Z,68.41
2023-05-21T18:37:05.370Z,69.04
2023-05-21T18:39:32.146Z,69.90
2023-05-21T18:42:12.199Z,70.47
2023-05-21T18:44:40.613Z,70.82
2023-05-21T18:47:07.905Z,71.89
2023-05-21T18:49:36.125Z,72.02
2023-05-21T18:52:04.648Z,72.13
2023-05-21T18:54:31.433Z,72.29
2023-05-21T18:57:00.233Z,72.58
2023-05-21T18:59:28.535Z,73.05
2023-05-21T19:01:55.420Z,73.38
2023-05-21T19:04:22.493Z,73.31
2023-05-21T19:06:49.191Z,74.29
2023-05-21T19:09:16.226Z,74.44
2023-05-21T19:11:43.141Z,74.70
2023-05-21T19:14:11.147Z,75.13
2023-05-21T19:16:38.277Z,76.08
2023-05-21T19:19:07.130Z,76.33
2023-05-21T19:21:33.909Z,76.74
2023-05-21T19:24:00.910Z,76.78
2023-05-21T19:26:28.195Z,77.55
2023-05-21T19:28:55.474Z,77.78
2023-05-21T19:31:23.093Z,77.70
2023-05-21T19:33:50.060Z,78.64
2023-05-21T19:36:17.199Z,78.87
2023-05-21T19:38:48.288Z,79.39
2023-05-21T19:41:19.179Z,80.03
2023-05-21T19:43:46.098Z,80.41
2023-05-21T19:46:13.188Z,80.42
2023-05-21T19:48:40.016Z,81.66
2023-05-21T19:51:06.777Z,82.96
2023-05-21T19:53:34.771Z,82.00
2023-05-21T19:56:01.521Z,82.41
2023-05-21T19:58:29.629Z,82.64
2023-05-21T20:00:59.429Z,83.25
2023-05-21T20:03:26.876Z,83.12
2023-05-21T20:05:54.264Z,83.20
2023-05-21T20:08:21.431Z,83.69
2023-05-21T20:10:51.352Z,84.22
2023-05-21T20:13:21.512Z,85.71
2023-05-21T20:15:50.943Z,85.05
2023-05-21T20:18:19.872Z,85.35
2023-05-21T20:20:46.647Z,86.92
2023-05-21T20:23:13.941Z,86.59
2023-05-21T20:25:40.761Z,87.15
2023-05-21T20:28:08.328Z,87.37
2023-05-21T20:30:51.084Z,87.10
2023-05-21T20:33:17.901Z,88.30
2023-05-21T20:35:44.667Z,88.01
2023-05-21T20:38:12.605Z,88.12
2023-05-21T20:40:39.391Z,89.11
2023-05-21T20:43:06.954Z,88.41
2023-05-21T20:45:36.144Z,90.14
2023-05-21T20:48:03.504Z,90.48
2023-05-21T20:50:30.224Z,89.75
2023-05-21T20:52:58.721Z,90.63
2023-05-21T20:55:25.407Z,90.60
2023-05-21T20:57:52.626Z,90.63
2023-05-21T21:00:22.506Z,91.30
2023-05-21T21:02:49.956Z,91.61
2023-05-21T21:05:16.606Z,91.14
2023-05-21T21:07:43.457Z,91.93
2023-05-21T21:10:10.317Z,92.13
2023-05-21T21:12:37.357Z,92.33
2023-05-21T21:15:04.360Z,92.52
2023-05-21T21:17:31.092Z,93.39
2023-05-21T21:19:57.781Z,92.80
2023-05-21T21:22:24.797Z,93.27
2023-05-21T21:24:51.528Z,93.12
2023-05-21T21:27:18.251Z,94.42
2023-05-21T21:29:45.884Z,94.08
2023-05-21T21:32:12.790Z,94.58
2023-05-21T21:34:41.697Z,95.76
2023-05-21T21:37:08.409Z,96.40
2023-05-21T21:39:34.993Z,96.59
2023-05-21T21:42:01.926Z,97.11
2023-05-21T21:44:28.656Z,97.71
2023-05-21T21:46:55.313Z,98.71
2023-05-21T21:49:21.867Z,99.91
2023-05-21T21:51:48.962Z,100.00
2023-05-21T21:54:16.092Z,99.80
2023-05-21T21:56:42.835Z,100.00
2023-05-21T21:59:09.427Z,100.00
2023-05-21T22:01:36.448Z,100.00
2023-05-21T22:04:04.565Z,100.00
2023-05-21T22:06:31.590Z,100.00
2023-05-21T22:08:58.289Z,100.00
2023-05-21T22:11:26.927Z,100.00
2023-05-21T22:13:54.015Z,100.00
2023-05-21T22:16:20.870Z,100.00
2023-05-21T22:18:47.495Z,100.00
2023-05-21T22:21:18.316Z,100.00
2023-05-21T22:23:45.506Z,100.00
2023-05-21T22:26:12.042Z,100.00
2023-05-21T22:28:38.918Z,100.00
2023-05-21T22:31:05.837Z,100.00
2023-05-21T22:33:32.594Z,100.00
2023-05-21T22:35:59.797Z,100.00
2023-05-21T22:38:26.559Z,100.00
2023-05-21T22:40:53.349Z,100.00
2023-05-21T22:43:20.082Z,100.00
2023-05-21T22:45:46.998Z,100.00
2023-05-21T22:48:14.186Z,100.00
2023-05-21T22:50:41.135Z,100.00
2023-05-21T22:53:08.098Z,100.00
2023-05-21T22:55:34.709Z,100.00
2023-05-21T22:58:01.904Z,100.00
2023-05-21T23:00:29.207Z,100.00
2023-05-21T23:02:56.371Z,100.00
2023-05-21T23:05:23.101Z,100.00
2023-05-21T23:07:49.961Z,100.00
2023-05-21T23:10:16.734Z,100.00
2023-05-21T23:12:43.545Z,100.00
2023-05-21T23:15:10.898Z,100.00
2023-05-21T23:17:38.860Z,100.00
2023-05-21T23:20:09.506Z,100.00
2023-05-21T23:22:36.791Z,100.00
2023-05-21T23:25:04.002Z,100.00
2023-05-21T23:27:30.754Z,100.00
2023-05-21T23:29:57.596Z,100.00
2023-05-21T23:32:24.445Z,100.00
2023-05-21T23:34:51.194Z,100.00
2023-05-21T23:37:19.411Z,100.00
2023-05-21T23:39:49.590Z,100.00
2023-05-21T23:42:18.308Z,100.00
2023-05-21T23:44:45.364Z,100.00
2023-05-21T23:47:12.199Z,100.00
2023-05-21T23:49:39.393Z,100.00
2023-05-21T23:52:06.574Z,100.00
2023-05-21T23:54:33.257Z,100.00
2023-05-21T23:56:59.940Z,100.00
2023-05-21T23:59:26.508Z,100.00
